Maradi, Niger
Current Conditions -  °F | °C
As of 8:00 AM on Friday 24 Oct 2014 (Local Time) from DRZA Reporting Station
Clear Clear  
Wind Chill: 81°   Ceiling: Unl
Heat Index: 81°   Visibility: 6mi
Dew Point: 37°   Wind: 9mph
Humidity: 21%   Direction: 80°E
Pressure: 29.97"   Gusts: NA
Location:  13.49°N, 7.1°E
Report Text: DRZA 240700Z 08008KT CAVOK 27/03 Q1015
Loading
Personal Weather Stations






























Interactive Weather Map
Tropical Storm Tracking
New forecast layout! Learn more

10-Day Weather Forecast

Advertisements
Track Severe Weather on mobile